createdAt,value
2019-03-29T00:00:03.141Z,0.00
2019-03-29T00:01:03.323Z,0.00
2019-03-29T00:02:03.495Z,0.00
2019-03-29T00:03:03.673Z,0.00
2019-03-29T00:04:03.862Z,0.00
2019-03-29T00:05:04.040Z,0.00
2019-03-29T00:06:04.225Z,0.00
2019-03-29T00:07:04.390Z,0.00
2019-03-29T00:08:04.573Z,0.00
2019-03-29T00:09:04.740Z,0.00
2019-03-29T00:10:04.916Z,0.00
2019-03-29T00:11:05.093Z,0.00
2019-03-29T00:12:05.266Z,0.00
2019-03-29T00:13:05.445Z,0.00
2019-03-29T00:14:05.628Z,0.00
2019-03-29T00:15:05.797Z,0.00
2019-03-29T00:16:05.970Z,0.00
2019-03-29T00:17:06.171Z,0.00
2019-03-29T00:18:06.320Z,0.00
2019-03-29T00:19:06.492Z,0.00
2019-03-29T00:20:06.668Z,0.00
2019-03-29T00:21:06.838Z,0.00
2019-03-29T00:22:07.019Z,0.00
2019-03-29T00:23:07.186Z,0.00
2019-03-29T00:24:07.460Z,0.00
2019-03-29T00:25:07.540Z,0.00
2019-03-29T00:26:07.720Z,0.00
2019-03-29T00:27:07.900Z,0.00
2019-03-29T00:28:08.080Z,0.00
2019-03-29T00:29:08.253Z,0.00
2019-03-29T00:30:08.414Z,0.00
2019-03-29T00:31:08.587Z,0.00
2019-03-29T00:32:08.767Z,0.00
2019-03-29T00:33:08.942Z,0.00
2019-03-29T00:34:09.116Z,0.00
2019-03-29T00:35:09.290Z,0.00
2019-03-29T00:36:09.477Z,0.00
2019-03-29T00:37:09.651Z,0.00
2019-03-29T00:38:09.833Z,0.00
2019-03-29T00:39:10.004Z,0.00
2019-03-29T00:40:10.174Z,0.00
2019-03-29T00:41:10.346Z,0.00
2019-03-29T00:42:10.539Z,0.00
2019-03-29T00:43:10.739Z,0.00
2019-03-29T00:44:10.876Z,0.00
2019-03-29T00:45:11.050Z,0.00
2019-03-29T00:46:11.366Z,0.00
2019-03-29T00:47:11.399Z,0.00
2019-03-29T00:48:11.571Z,0.00
2019-03-29T00:49:11.747Z,0.00
2019-03-29T00:50:11.921Z,0.00
2019-03-29T00:51:12.100Z,0.00
2019-03-29T00:52:12.274Z,0.00
2019-03-29T00:53:12.452Z,0.00
2019-03-29T00:54:12.625Z,0.00
2019-03-29T00:55:12.798Z,0.00
2019-03-29T00:56:13.123Z,0.00
2019-03-29T00:57:13.162Z,0.00
2019-03-29T00:58:13.320Z,0.00
2019-03-29T00:59:14.297Z,0.00
2019-03-29T01:00:13.684Z,0.00
2019-03-29T01:01:13.846Z,0.00
2019-03-29T01:02:14.018Z,0.00
2019-03-29T01:03:14.196Z,0.00
2019-03-29T01:04:14.373Z,0.00
2019-03-29T01:05:14.549Z,0.00
2019-03-29T01:07:14.899Z,0.00
2019-03-29T01:08:15.066Z,0.00
2019-03-29T01:09:15.240Z,0.00
2019-03-29T01:10:15.421Z,0.00
2019-03-29T01:11:15.599Z,0.00
2019-03-29T01:13:15.933Z,0.00
2019-03-29T01:14:16.829Z,0.00
2019-03-29T01:15:16.282Z,0.00
2019-03-29T01:16:16.457Z,0.00
2019-03-29T01:17:16.633Z,0.00
2019-03-29T01:18:16.807Z,0.00
2019-03-29T01:19:16.998Z,0.00
2019-03-29T01:20:17.160Z,0.00
2019-03-29T01:21:17.331Z,0.00
2019-03-29T01:22:17.511Z,0.00
2019-03-29T01:23:17.682Z,0.00
2019-03-29T01:24:17.858Z,0.00
2019-03-29T01:25:18.029Z,0.00
2019-03-29T01:26:18.206Z,0.00
2019-03-29T01:27:19.113Z,0.00
2019-03-29T01:28:18.562Z,0.00
2019-03-29T01:29:18.728Z,0.00
2019-03-29T01:30:18.913Z,0.00
2019-03-29T01:31:19.083Z,0.00
2019-03-29T01:32:19.261Z,0.00
2019-03-29T01:33:19.432Z,0.00
2019-03-29T01:34:20.332Z,0.00
2019-03-29T01:35:19.772Z,0.00
2019-03-29T01:36:19.941Z,0.00
2019-03-29T01:37:20.142Z,0.00
2019-03-29T01:38:22.202Z,0.00
2019-03-29T01:39:20.457Z,0.00
2019-03-29T01:40:20.632Z,0.00
2019-03-29T01:41:20.810Z,0.00
2019-03-29T01:42:20.990Z,0.00
2019-03-29T01:43:21.165Z,0.00
2019-03-29T01:44:21.341Z,0.00
2019-03-29T01:45:21.515Z,0.00
2019-03-29T01:46:21.692Z,0.00
2019-03-29T01:47:21.868Z,0.00
2019-03-29T01:48:22.415Z,0.00
2019-03-29T01:49:22.216Z,0.00
2019-03-29T01:50:22.393Z,0.00
2019-03-29T01:51:22.575Z,0.00
2019-03-29T01:52:22.750Z,0.00
2019-03-29T01:53:22.930Z,0.00
2019-03-29T01:54:23.101Z,0.00
2019-03-29T01:55:23.328Z,0.00
2019-03-29T01:56:23.454Z,0.00
2019-03-29T01:57:23.634Z,0.00
2019-03-29T01:58:25.014Z,0.00
2019-03-29T01:59:23.982Z,0.00
2019-03-29T02:00:24.159Z,0.00
2019-03-29T02:01:24.331Z,0.00
2019-03-29T02:02:24.509Z,0.00
2019-03-29T02:03:24.686Z,0.00
2019-03-29T02:04:24.867Z,0.00
2019-03-29T02:05:25.034Z,0.00
2019-03-29T02:06:25.210Z,0.00
2019-03-29T02:07:25.389Z,0.00
2019-03-29T02:08:35.548Z,0.00
2019-03-29T02:09:25.829Z,0.00
2019-03-29T02:10:25.905Z,0.00
2019-03-29T02:11:26.089Z,0.00
2019-03-29T02:12:26.258Z,0.00
2019-03-29T02:13:26.435Z,0.00
2019-03-29T02:14:26.612Z,0.00
2019-03-29T02:15:26.787Z,0.00
2019-03-29T02:16:26.971Z,0.00
2019-03-29T02:17:27.135Z,0.00
2019-03-29T02:20:07.656Z,0.00
2019-03-29T02:21:07.830Z,0.00
2019-03-29T02:22:09.018Z,0.00
2019-03-29T02:23:08.196Z,0.00
2019-03-29T02:24:08.353Z,0.00
2019-03-29T02:25:08.531Z,0.00
2019-03-29T02:26:08.946Z,0.00
2019-03-29T02:27:08.879Z,0.00
2019-03-29T02:28:09.054Z,0.00
2019-03-29T02:29:09.268Z,0.00
2019-03-29T02:30:09.407Z,0.00
2019-03-29T02:31:09.586Z,0.00
2019-03-29T02:32:09.754Z,0.00
2019-03-29T02:33:09.941Z,0.00
2019-03-29T02:34:10.119Z,0.00
2019-03-29T02:35:11.474Z,0.00
2019-03-29T02:36:10.452Z,0.00
2019-03-29T02:37:10.655Z,0.00
2019-03-29T02:38:10.807Z,0.00
2019-03-29T02:39:10.980Z,0.00
2019-03-29T02:40:11.151Z,0.00
2019-03-29T02:41:12.237Z,0.00
2019-03-29T02:42:11.528Z,0.00
2019-03-29T02:43:11.704Z,0.00
2019-03-29T02:44:11.882Z,0.00
2019-03-29T02:45:12.067Z,0.00
2019-03-29T02:46:12.232Z,0.00
2019-03-29T02:47:12.441Z,0.00
2019-03-29T02:48:12.575Z,0.00
2019-03-29T02:49:13.241Z,0.00
2019-03-29T02:50:12.924Z,0.00
2019-03-29T02:51:13.102Z,0.00
2019-03-29T02:52:13.275Z,0.00
2019-03-29T02:53:13.554Z,0.00
2019-03-29T02:54:13.628Z,0.00
2019-03-29T02:55:13.821Z,0.00
2019-03-29T02:56:13.975Z,0.00
2019-03-29T02:57:14.149Z,0.00
2019-03-29T02:58:14.344Z,0.00
2019-03-29T02:59:14.505Z,0.00
2019-03-29T03:00:14.684Z,0.00
2019-03-29T03:01:14.851Z,0.00
2019-03-29T03:02:15.028Z,0.00
2019-03-29T03:03:15.200Z,0.00
2019-03-29T03:04:15.375Z,0.00
2019-03-29T03:05:15.551Z,0.00
2019-03-29T03:06:15.734Z,0.00
2019-03-29T03:07:15.930Z,0.00
2019-03-29T03:08:16.077Z,0.00
2019-03-29T03:09:16.288Z,0.00
2019-03-29T03:10:16.432Z,0.00
2019-03-29T03:11:16.602Z,0.00
2019-03-29T03:12:16.779Z,0.00
2019-03-29T03:13:16.958Z,0.00
2019-03-29T03:14:17.243Z,0.00
2019-03-29T03:15:17.301Z,0.00
2019-03-29T03:16:17.477Z,0.00
2019-03-29T03:17:17.656Z,0.00
2019-03-29T03:18:17.832Z,0.00
2019-03-29T03:19:18.005Z,0.00
2019-03-29T03:20:18.197Z,0.00
2019-03-29T03:21:18.356Z,0.00
2019-03-29T03:22:18.528Z,0.00
2019-03-29T03:23:18.705Z,0.00
2019-03-29T03:24:18.886Z,0.00
2019-03-29T03:25:19.056Z,0.00
2019-03-29T03:26:19.228Z,0.00
2019-03-29T03:27:19.405Z,0.00
2019-03-29T03:28:19.578Z,0.00
2019-03-29T03:29:19.753Z,0.00
2019-03-29T03:30:19.937Z,0.00
2019-03-29T03:31:20.103Z,0.00
2019-03-29T03:32:20.292Z,0.00
2019-03-29T03:33:20.481Z,0.00
2019-03-29T03:34:20.633Z,0.00
2019-03-29T03:35:20.806Z,0.00
2019-03-29T03:36:20.977Z,0.00
2019-03-29T03:37:21.155Z,0.00
2019-03-29T03:38:21.327Z,0.00
2019-03-29T03:39:31.447Z,0.00
2019-03-29T03:40:21.682Z,0.00
2019-03-29T03:41:21.850Z,0.00
2019-03-29T03:42:22.031Z,0.00
2019-03-29T03:43:22.200Z,0.00
2019-03-29T03:44:22.375Z,0.00
2019-03-29T03:45:22.557Z,0.00
2019-03-29T03:46:22.736Z,0.00
2019-03-29T03:47:22.912Z,0.00
2019-03-29T03:48:23.077Z,0.00
2019-03-29T03:49:23.262Z,0.00
2019-03-29T03:50:23.428Z,0.00
2019-03-29T03:51:23.605Z,0.00
2019-03-29T03:52:23.779Z,0.00
2019-03-29T03:53:23.961Z,0.00
2019-03-29T03:54:24.153Z,0.00
2019-03-29T03:55:24.307Z,0.00
2019-03-29T03:56:24.479Z,0.00
2019-03-29T03:57:24.653Z,0.00
2019-03-29T03:58:24.828Z,0.00
2019-03-29T03:59:25.008Z,0.00
2019-03-29T04:00:25.184Z,0.00
2019-03-29T04:01:25.366Z,0.00
2019-03-29T04:02:25.547Z,0.00
2019-03-29T04:03:25.729Z,0.00
2019-03-29T04:04:25.906Z,0.00
2019-03-29T04:05:26.070Z,0.00
2019-03-29T04:06:26.238Z,0.00
2019-03-29T04:07:26.414Z,0.00
2019-03-29T04:08:26.592Z,0.00
2019-03-29T04:09:26.768Z,0.00
2019-03-29T04:10:26.939Z,0.00
2019-03-29T04:11:27.112Z,0.00
2019-03-29T04:12:27.290Z,0.00
2019-03-29T04:13:27.487Z,0.00
2019-03-29T04:14:27.645Z,0.00
2019-03-29T04:15:27.823Z,0.00
2019-03-29T04:16:27.990Z,0.00
2019-03-29T04:17:28.165Z,0.00
2019-03-29T04:18:28.338Z,0.00
2019-03-29T04:19:28.511Z,0.00
2019-03-29T04:20:29.272Z,0.00
2019-03-29T04:21:28.811Z,0.00
2019-03-29T04:22:29.012Z,0.00
2019-03-29T04:23:29.157Z,0.00
2019-03-29T04:24:29.333Z,0.00
2019-03-29T04:25:29.509Z,0.00
2019-03-29T04:26:29.686Z,0.00
2019-03-29T04:27:29.869Z,0.00
2019-03-29T04:28:30.032Z,0.00
2019-03-29T04:29:30.217Z,0.00
2019-03-29T04:30:30.381Z,0.00
2019-03-29T04:31:30.559Z,0.00
2019-03-29T04:32:30.840Z,0.00
2019-03-29T04:33:30.904Z,0.00
2019-03-29T04:34:31.099Z,0.00
2019-03-29T04:35:31.257Z,0.00
2019-03-29T04:36:31.434Z,0.00
2019-03-29T04:37:31.614Z,0.00
2019-03-29T04:38:31.783Z,0.00
2019-03-29T04:39:31.960Z,4.00
2019-03-29T04:40:32.137Z,4.00
2019-03-29T04:41:32.313Z,4.00
2019-03-29T04:42:32.486Z,4.00
2019-03-29T04:43:32.661Z,4.00
2019-03-29T04:44:32.832Z,4.00
2019-03-29T04:45:33.006Z,4.00
2019-03-29T04:46:33.183Z,8.00
2019-03-29T04:47:33.376Z,8.00
2019-03-29T04:48:33.599Z,12.00
2019-03-29T04:49:33.708Z,12.00
2019-03-29T04:50:33.879Z,16.00
2019-03-29T04:51:34.055Z,16.00
2019-03-29T04:52:34.232Z,20.00
2019-03-29T04:53:34.405Z,20.00
2019-03-29T04:54:34.589Z,24.00
2019-03-29T04:55:34.755Z,28.00
2019-03-29T04:56:34.945Z,32.00
2019-03-29T04:57:35.100Z,36.00
2019-03-29T04:58:35.279Z,40.00
2019-03-29T04:59:35.459Z,44.00
2019-03-29T05:00:35.633Z,48.00
2019-03-29T05:01:35.804Z,52.00
2019-03-29T05:02:35.992Z,56.00
2019-03-29T05:03:36.155Z,64.00
2019-03-29T05:04:36.325Z,72.00
2019-03-29T05:05:36.509Z,80.00
2019-03-29T05:06:36.679Z,88.00
2019-03-29T05:07:37.310Z,96.00
2019-03-29T05:08:37.030Z,108.00
2019-03-29T05:09:37.203Z,120.00
2019-03-29T05:10:37.377Z,136.00
2019-03-29T05:11:37.556Z,148.00
2019-03-29T05:12:37.729Z,168.00
2019-03-29T05:13:37.905Z,180.00
2019-03-29T05:14:38.077Z,192.00
2019-03-29T05:15:38.252Z,208.00
2019-03-29T05:16:38.431Z,224.00
2019-03-29T05:17:38.601Z,240.00
2019-03-29T05:18:38.776Z,264.00
2019-03-29T05:19:38.952Z,288.00
2019-03-29T05:20:39.122Z,312.00
2019-03-29T05:21:39.300Z,328.00
2019-03-29T05:22:39.475Z,340.00
2019-03-29T05:23:39.648Z,356.00
2019-03-29T05:24:39.825Z,364.00
2019-03-29T05:25:40.001Z,380.00
2019-03-29T05:26:40.174Z,412.00
2019-03-29T05:27:40.351Z,436.00
2019-03-29T05:28:40.524Z,468.00
2019-03-29T05:29:40.698Z,488.00
2019-03-29T05:30:40.874Z,512.00
2019-03-29T05:31:41.048Z,540.00
2019-03-29T05:32:41.223Z,556.00
2019-03-29T05:33:41.398Z,584.00
2019-03-29T05:34:41.577Z,604.00
2019-03-29T05:35:41.748Z,636.00
2019-03-29T05:36:41.933Z,660.00
2019-03-29T05:37:42.100Z,704.00
2019-03-29T05:38:42.269Z,760.00
2019-03-29T05:39:42.445Z,840.00
2019-03-29T05:40:42.624Z,940.00
2019-03-29T05:41:42.791Z,1080.00
2019-03-29T05:42:42.967Z,1256.00
2019-03-29T05:43:43.146Z,1476.00
2019-03-29T05:44:43.317Z,1736.00
2019-03-29T05:45:43.490Z,2012.00
2019-03-29T05:46:43.667Z,2260.00
2019-03-29T05:47:43.847Z,2448.00
2019-03-29T05:48:44.019Z,2584.00
2019-03-29T05:49:44.791Z,2664.00
2019-03-29T05:50:44.331Z,2720.00
2019-03-29T05:51:44.507Z,2744.00
2019-03-29T05:52:44.685Z,2840.00
2019-03-29T05:53:44.856Z,3060.00
2019-03-29T05:54:45.033Z,3312.00
2019-03-29T05:55:48.212Z,3496.00
2019-03-29T05:56:45.379Z,3720.00
2019-03-29T05:57:45.555Z,3976.00
2019-03-29T05:58:45.732Z,4188.00
2019-03-29T05:59:45.903Z,4504.00
2019-03-29T06:00:46.079Z,12276.00
2019-03-29T06:01:46.261Z,6660.00
2019-03-29T06:02:46.433Z,8792.00
2019-03-29T06:03:46.609Z,10656.00
2019-03-29T06:04:46.784Z,8656.00
2019-03-29T06:05:46.954Z,14080.00
2019-03-29T06:06:47.124Z,12952.00
2019-03-29T06:07:47.321Z,21216.00
2019-03-29T06:08:47.475Z,26464.00
2019-03-29T06:09:47.655Z,30080.00
2019-03-29T06:10:49.574Z,24064.00
2019-03-29T06:11:48.008Z,31936.00
2019-03-29T06:12:48.178Z,33792.00
2019-03-29T06:13:48.351Z,32096.00
2019-03-29T06:14:48.531Z,23776.00
2019-03-29T06:15:48.707Z,28320.00
2019-03-29T06:16:48.884Z,29088.00
2019-03-29T06:17:49.464Z,29024.00
2019-03-29T06:18:49.245Z,23424.00
2019-03-29T06:19:49.420Z,11140.00
2019-03-29T06:20:49.590Z,10836.00
2019-03-29T06:21:49.770Z,11152.00
2019-03-29T06:22:49.949Z,14304.00
2019-03-29T06:23:50.129Z,9604.00
2019-03-29T06:24:50.311Z,8376.00
2019-03-29T06:25:50.487Z,7704.00
2019-03-29T06:26:50.671Z,7120.00
2019-03-29T06:27:50.848Z,6860.00
2019-03-29T06:28:51.020Z,7000.00
2019-03-29T06:29:51.198Z,7276.00
2019-03-29T06:30:51.378Z,7340.00
2019-03-29T06:31:51.555Z,7608.00
2019-03-29T06:32:51.732Z,7564.00
2019-03-29T06:33:51.912Z,7364.00
2019-03-29T06:34:52.095Z,7272.00
2019-03-29T06:35:52.264Z,7536.00
2019-03-29T06:36:53.295Z,7712.00
2019-03-29T06:37:52.597Z,8036.00
2019-03-29T06:39:52.963Z,7612.00
2019-03-29T06:41:02.667Z,7444.00
2019-03-29T06:41:53.315Z,7280.00
2019-03-29T06:42:53.505Z,7400.00
2019-03-29T06:43:54.302Z,7792.00
2019-03-29T06:44:53.864Z,8276.00
2019-03-29T06:45:54.032Z,8616.00
2019-03-29T06:46:54.209Z,8488.00
2019-03-29T06:47:54.386Z,8096.00
2019-03-29T06:48:54.566Z,7632.00
2019-03-29T06:49:54.750Z,7372.00
2019-03-29T06:50:54.918Z,7440.00
2019-03-29T06:51:55.101Z,7880.00
2019-03-29T06:52:55.273Z,8400.00
2019-03-29T06:53:55.459Z,8636.00
2019-03-29T06:54:55.632Z,8572.00
2019-03-29T06:55:59.101Z,8300.00
2019-03-29T06:56:55.980Z,8152.00
2019-03-29T06:57:56.165Z,8316.00
2019-03-29T06:58:56.337Z,8964.00
2019-03-29T06:59:56.513Z,9400.00
2019-03-29T07:00:56.689Z,9948.00
2019-03-29T07:01:56.866Z,11148.00
2019-03-29T07:02:57.049Z,10272.00
2019-03-29T07:03:57.221Z,10344.00
2019-03-29T07:04:57.396Z,10624.00
2019-03-29T07:05:57.573Z,10832.00
2019-03-29T07:06:57.796Z,11192.00
2019-03-29T07:07:57.935Z,11568.00
2019-03-29T07:08:58.111Z,12172.00
2019-03-29T07:09:58.288Z,13084.00
2019-03-29T07:10:58.467Z,13696.00
2019-03-29T07:11:58.642Z,14980.00
2019-03-29T07:12:58.825Z,17152.00
2019-03-29T07:13:59.000Z,19424.00
2019-03-29T07:14:59.171Z,26080.00
2019-03-29T07:15:59.350Z,20096.00
2019-03-29T07:16:59.528Z,26944.00
2019-03-29T07:17:59.703Z,22432.00
2019-03-29T07:18:59.885Z,25600.00
2019-03-29T07:20:00.151Z,25952.00
2019-03-29T07:21:00.250Z,31840.00
2019-03-29T07:22:00.421Z,37280.00
2019-03-29T07:23:00.601Z,33376.00
2019-03-29T07:24:00.779Z,31776.00
2019-03-29T07:25:00.961Z,37600.00
2019-03-29T07:26:01.144Z,40192.00
2019-03-29T07:27:01.391Z,41536.00
2019-03-29T07:28:01.524Z,40928.00
2019-03-29T07:29:01.752Z,40288.00
2019-03-29T07:30:01.849Z,38336.00
2019-03-29T07:31:02.035Z,37376.00
2019-03-29T07:32:02.214Z,37728.00
2019-03-29T07:33:02.386Z,37856.00
2019-03-29T07:34:02.575Z,36896.00
2019-03-29T07:35:02.748Z,38400.00
2019-03-29T07:36:02.951Z,38624.00
2019-03-29T07:37:05.809Z,37984.00
2019-03-29T07:38:03.293Z,38400.00
2019-03-29T07:39:03.478Z,39840.00
2019-03-29T07:40:03.666Z,40256.00
2019-03-29T07:41:03.844Z,40096.00
2019-03-29T07:42:04.031Z,40480.00
2019-03-29T07:43:04.213Z,41408.00
2019-03-29T07:44:04.400Z,39936.00
2019-03-29T07:45:04.577Z,36992.00
2019-03-29T07:46:04.777Z,35552.00
2019-03-29T07:47:04.938Z,34656.00
2019-03-29T07:48:05.123Z,32864.00
2019-03-29T07:49:05.310Z,29888.00
2019-03-29T07:50:05.509Z,28736.00
2019-03-29T07:51:05.679Z,31008.00
2019-03-29T07:52:05.861Z,32224.00
2019-03-29T07:53:06.050Z,29920.00
2019-03-29T07:54:06.229Z,29600.00
2019-03-29T07:55:06.416Z,34240.00
2019-03-29T07:56:06.598Z,37824.00
2019-03-29T07:57:06.784Z,34816.00
2019-03-29T07:58:06.973Z,31392.00
2019-03-29T07:59:07.165Z,30592.00
2019-03-29T08:00:07.342Z,30848.00
2019-03-29T08:01:08.369Z,31136.00
2019-03-29T08:02:07.743Z,31424.00
2019-03-29T08:03:07.904Z,31008.00
2019-03-29T08:04:08.088Z,30272.00
2019-03-29T08:05:08.277Z,29280.00
2019-03-29T08:06:08.463Z,28768.00
2019-03-29T08:07:08.650Z,28576.00
2019-03-29T08:08:22.697Z,27200.00
2019-03-29T08:09:21.774Z,26816.00
2019-03-29T08:10:09.262Z,27360.00
2019-03-29T08:11:09.450Z,27136.00
2019-03-29T08:12:09.647Z,27200.00
2019-03-29T08:13:09.826Z,27296.00
2019-03-29T08:14:10.026Z,27168.00
2019-03-29T08:15:10.221Z,26560.00
2019-03-29T08:16:10.380Z,25632.00
2019-03-29T08:17:10.566Z,24256.00
2019-03-29T08:18:10.752Z,24288.00
2019-03-29T08:19:10.941Z,25056.00
2019-03-29T08:20:37.588Z,20992.00
2019-03-29T08:21:11.309Z,23936.00
2019-03-29T08:22:11.497Z,8684.00
2019-03-29T08:23:11.684Z,8632.00
2019-03-29T08:24:12.014Z,8840.00
2019-03-29T08:25:12.054Z,9832.00
2019-03-29T08:26:12.234Z,21952.00
2019-03-29T08:27:12.422Z,8932.00
2019-03-29T08:28:12.604Z,8532.00
2019-03-29T08:29:12.791Z,6844.00
2019-03-29T08:30:12.984Z,6472.00
2019-03-29T08:31:13.161Z,5960.00
2019-03-29T08:32:13.334Z,5920.00
2019-03-29T08:33:13.530Z,6728.00
2019-03-29T08:34:13.702Z,6252.00
2019-03-29T08:35:13.887Z,6056.00
2019-03-29T08:36:14.070Z,6008.00
2019-03-29T08:37:14.249Z,6088.00
2019-03-29T08:38:14.450Z,6216.00
2019-03-29T08:39:27.241Z,6376.00
2019-03-29T08:40:14.799Z,6560.00
2019-03-29T08:41:15.841Z,6744.00
2019-03-29T08:42:18.417Z,7004.00
2019-03-29T08:43:15.324Z,7360.00
2019-03-29T08:44:15.509Z,7636.00
2019-03-29T08:45:15.753Z,7720.00
2019-03-29T08:46:15.871Z,7676.00
2019-03-29T08:47:16.048Z,7696.00
2019-03-29T08:48:16.255Z,7932.00
2019-03-29T08:49:16.933Z,8252.00
2019-03-29T08:50:16.617Z,8572.00
2019-03-29T08:51:16.755Z,8488.00
2019-03-29T08:52:16.932Z,8132.00
2019-03-29T08:53:17.112Z,7908.00
2019-03-29T08:54:17.300Z,7776.00
2019-03-29T08:55:17.885Z,7824.00
2019-03-29T08:56:17.647Z,7844.00
2019-03-29T08:57:18.346Z,7960.00
2019-03-29T08:58:18.024Z,8168.00
2019-03-29T08:59:18.210Z,8188.00
2019-03-29T09:00:18.400Z,8116.00
2019-03-29T09:01:19.585Z,8188.00
2019-03-29T09:02:18.750Z,8440.00
2019-03-29T09:03:18.938Z,8864.00
2019-03-29T09:04:21.684Z,9128.00
2019-03-29T09:05:19.290Z,9044.00
2019-03-29T09:06:19.502Z,8776.00
2019-03-29T09:07:19.657Z,8744.00
2019-03-29T09:08:19.953Z,8920.00
2019-03-29T09:09:19.988Z,9208.00
2019-03-29T09:10:20.167Z,9548.00
2019-03-29T09:11:20.363Z,9992.00
2019-03-29T09:12:21.351Z,10680.00
2019-03-29T09:13:20.658Z,11308.00
2019-03-29T09:14:20.845Z,14364.00
2019-03-29T09:15:21.018Z,12988.00
2019-03-29T09:16:21.199Z,11888.00
2019-03-29T09:17:21.376Z,10852.00
2019-03-29T09:18:21.557Z,10784.00
2019-03-29T09:19:21.740Z,10440.00
2019-03-29T09:20:21.948Z,10600.00
2019-03-29T09:21:22.095Z,11760.00
2019-03-29T09:22:22.281Z,11880.00
2019-03-29T09:23:22.469Z,11056.00
2019-03-29T09:24:22.747Z,15096.00
2019-03-29T09:25:22.822Z,11144.00
2019-03-29T09:26:23.002Z,12104.00
2019-03-29T09:27:23.188Z,10196.00
2019-03-29T09:28:24.361Z,15580.00
2019-03-29T09:29:23.763Z,9316.00
2019-03-29T09:30:24.181Z,8672.00
2019-03-29T09:31:24.316Z,8616.00
2019-03-29T09:32:24.048Z,8736.00
2019-03-29T09:33:24.226Z,9108.00
2019-03-29T09:34:24.442Z,8636.00
2019-03-29T09:35:24.587Z,9440.00
2019-03-29T09:36:24.768Z,7992.00
2019-03-29T09:37:24.947Z,7924.00
2019-03-29T09:38:25.130Z,8088.00
2019-03-29T09:39:25.309Z,8188.00
2019-03-29T09:40:25.493Z,8556.00
2019-03-29T09:41:25.669Z,9604.00
2019-03-29T09:42:29.413Z,7856.00
2019-03-29T09:43:26.696Z,7444.00
2019-03-29T09:44:26.362Z,7412.00
2019-03-29T09:45:27.460Z,7508.00
2019-03-29T09:46:26.559Z,7640.00
2019-03-29T09:47:27.383Z,7844.00
2019-03-29T09:48:28.057Z,8428.00
2019-03-29T09:49:27.216Z,13216.00
2019-03-29T09:50:27.438Z,8920.00
2019-03-29T09:51:27.593Z,8100.00
2019-03-29T09:52:27.702Z,8544.00
2019-03-29T09:53:27.881Z,8252.00
2019-03-29T09:54:28.142Z,8284.00
2019-03-29T09:55:28.245Z,8296.00
2019-03-29T09:56:38.865Z,8260.00
2019-03-29T09:57:37.366Z,8332.00
2019-03-29T09:58:28.737Z,8460.00
2019-03-29T09:59:28.872Z,9472.00
2019-03-29T10:00:29.045Z,9560.00
2019-03-29T10:01:29.513Z,8180.00
2019-03-29T10:02:29.513Z,7896.00
2019-03-29T10:03:29.655Z,7644.00
2019-03-29T10:04:29.905Z,7576.00
2019-03-29T10:05:31.455Z,7404.00
2019-03-29T10:06:30.218Z,7416.00
2019-03-29T10:07:30.410Z,7372.00
2019-03-29T10:08:30.572Z,7372.00
2019-03-29T10:09:30.793Z,8360.00
2019-03-29T10:10:34.200Z,7932.00
2019-03-29T10:11:31.172Z,11952.00
2019-03-29T10:12:42.692Z,7424.00
2019-03-29T10:13:31.425Z,7312.00
2019-03-29T10:14:33.471Z,7168.00
2019-03-29T10:15:31.944Z,7156.00
2019-03-29T10:16:31.956Z,7312.00
2019-03-29T10:17:32.134Z,7364.00
2019-03-29T10:18:32.315Z,7460.00
2019-03-29T10:19:32.483Z,7208.00
2019-03-29T10:20:32.982Z,7152.00
2019-03-29T10:21:34.300Z,7276.00
2019-03-29T10:22:33.178Z,7012.00
2019-03-29T10:23:33.399Z,7224.00
2019-03-29T10:24:33.430Z,7172.00
2019-03-29T10:25:34.316Z,7156.00
2019-03-29T10:26:34.884Z,7316.00
2019-03-29T10:27:34.155Z,7176.00
2019-03-29T10:28:34.249Z,7060.00
2019-03-29T10:29:34.431Z,9804.00
2019-03-29T10:30:34.611Z,11164.00
2019-03-29T10:31:34.881Z,11548.00
2019-03-29T10:32:34.952Z,12724.00
2019-03-29T10:33:35.136Z,12860.00
2019-03-29T10:34:37.519Z,12836.00
2019-03-29T10:35:50.328Z,12704.00
2019-03-29T10:36:35.748Z,12412.00
2019-03-29T10:37:35.949Z,12204.00
2019-03-29T10:38:36.100Z,12208.00
2019-03-29T10:39:36.285Z,12036.00
2019-03-29T10:40:36.470Z,11648.00
2019-03-29T10:41:38.031Z,11900.00
2019-03-29T10:42:39.777Z,11540.00
2019-03-29T10:43:37.009Z,11128.00
2019-03-29T10:44:37.194Z,11480.00
2019-03-29T10:45:40.353Z,11316.00
2019-03-29T10:46:37.561Z,11304.00
2019-03-29T10:47:43.772Z,11348.00
2019-03-29T10:48:37.923Z,11348.00
2019-03-29T10:49:38.101Z,11392.00
2019-03-29T10:50:38.900Z,10636.00
2019-03-29T10:51:38.444Z,10684.00
2019-03-29T10:52:38.636Z,10308.00
2019-03-29T10:53:38.822Z,6608.00
2019-03-29T10:54:38.994Z,10184.00
2019-03-29T10:55:39.176Z,7656.00
2019-03-29T10:56:39.362Z,6956.00
2019-03-29T10:57:39.553Z,5820.00
2019-03-29T10:58:39.731Z,10420.00
2019-03-29T10:59:39.910Z,10352.00
2019-03-29T11:00:40.153Z,10336.00
2019-03-29T11:01:40.415Z,10324.00
2019-03-29T11:02:40.609Z,10324.00
2019-03-29T11:03:41.403Z,10308.00
2019-03-29T11:04:41.041Z,10368.00
2019-03-29T11:05:41.190Z,11256.00
2019-03-29T11:06:41.341Z,13352.00
2019-03-29T11:07:41.527Z,14432.00
2019-03-29T11:08:43.554Z,13296.00
2019-03-29T11:09:42.005Z,10668.00
2019-03-29T11:10:42.258Z,10000.00
2019-03-29T11:11:42.235Z,9840.00
2019-03-29T11:12:42.430Z,9636.00
2019-03-29T11:13:42.602Z,9536.00
2019-03-29T11:14:42.792Z,9556.00
2019-03-29T11:15:42.973Z,9540.00
2019-03-29T11:16:43.162Z,9488.00
2019-03-29T11:17:43.343Z,9408.00
2019-03-29T11:18:45.749Z,9356.00
2019-03-29T11:19:43.709Z,9292.00
2019-03-29T11:20:43.904Z,8588.00
2019-03-29T11:21:44.079Z,9032.00
2019-03-29T11:22:44.264Z,8864.00
2019-03-29T11:23:44.445Z,8724.00
2019-03-29T11:24:44.632Z,8660.00
2019-03-29T11:25:48.268Z,8644.00
2019-03-29T11:26:44.998Z,8664.00
2019-03-29T11:27:45.179Z,8696.00
2019-03-29T11:28:45.361Z,8636.00
2019-03-29T11:29:45.540Z,8484.00
2019-03-29T11:30:45.729Z,8428.00
2019-03-29T11:31:45.919Z,8320.00
2019-03-29T11:32:46.095Z,8240.00
2019-03-29T11:33:46.280Z,8100.00
2019-03-29T11:34:46.463Z,8036.00
2019-03-29T11:35:46.646Z,7988.00
2019-03-29T11:36:46.840Z,7880.00
2019-03-29T11:37:47.035Z,7796.00
2019-03-29T11:38:47.188Z,7756.00
2019-03-29T11:39:47.364Z,7688.00
2019-03-29T11:40:47.562Z,7580.00
2019-03-29T11:41:47.736Z,7516.00
2019-03-29T11:42:47.928Z,7268.00
2019-03-29T11:43:48.102Z,7360.00
2019-03-29T11:44:48.540Z,7196.00
2019-03-29T11:45:48.589Z,7100.00
2019-03-29T11:46:48.633Z,7012.00
2019-03-29T11:47:49.419Z,6972.00
2019-03-29T11:48:49.745Z,6932.00
2019-03-29T11:49:52.865Z,6884.00
2019-03-29T11:50:49.421Z,6892.00
2019-03-29T11:51:49.693Z,6840.00
2019-03-29T11:52:49.770Z,6772.00
2019-03-29T11:53:51.444Z,6720.00
2019-03-29T11:54:50.127Z,6508.00
2019-03-29T11:55:50.300Z,4244.00
2019-03-29T11:56:50.489Z,6264.00
2019-03-29T11:57:50.666Z,6420.00
2019-03-29T11:58:52.150Z,6436.00
2019-03-29T11:59:51.022Z,6332.00
2019-03-29T12:00:51.199Z,6372.00
2019-03-29T12:01:51.382Z,6372.00
2019-03-29T12:02:51.572Z,6320.00
2019-03-29T12:03:51.743Z,6276.00
2019-03-29T12:04:51.923Z,6236.00
2019-03-29T12:05:52.104Z,6172.00
2019-03-29T12:06:52.284Z,6156.00
2019-03-29T12:07:52.474Z,6108.00
2019-03-29T12:08:52.643Z,6096.00
2019-03-29T12:09:52.849Z,6092.00
2019-03-29T12:10:53.011Z,6068.00
2019-03-29T12:11:53.193Z,6056.00
2019-03-29T12:12:53.376Z,6044.00
2019-03-29T12:13:53.556Z,6064.00
2019-03-29T12:14:53.740Z,6028.00
2019-03-29T12:15:53.907Z,5976.00
2019-03-29T12:16:54.081Z,5960.00
2019-03-29T12:17:54.265Z,5956.00
2019-03-29T12:18:54.446Z,5916.00
2019-03-29T12:19:54.627Z,5888.00
2019-03-29T12:20:54.822Z,5880.00
2019-03-29T12:21:54.986Z,5872.00
2019-03-29T12:22:55.168Z,5840.00
2019-03-29T12:23:55.357Z,5852.00
2019-03-29T12:24:55.536Z,5836.00
2019-03-29T12:25:55.709Z,5828.00
2019-03-29T12:26:55.902Z,5804.00
2019-03-29T12:27:56.075Z,5792.00
2019-03-29T12:28:56.247Z,5776.00
2019-03-29T12:29:56.428Z,5760.00
2019-03-29T12:30:56.607Z,5728.00
2019-03-29T12:31:56.794Z,5728.00
2019-03-29T12:32:56.967Z,5712.00
2019-03-29T12:33:57.151Z,5752.00
2019-03-29T12:34:57.330Z,5764.00
2019-03-29T12:35:57.506Z,5772.00